Greenwich, CT

12:35 PM EDT on September 04, 2015 (GMT -0400)
APRSWXNET | | Change Station
CLOSE
Current Station
Personal Weather Station
Location: Port Chester, NY
Elevation: 90 ft
Nearby Weather Stations

Elev 90 ft 41.01 °N, 73.65 °W | Updated 65 days ago

Partly Cloudy
Partly Cloudy
81 °F
Feels Like 83 °F
N
12
Wind Variable Wind from ENE
Gusts 17 mph

Today
High -- | Low -- °F
--% Chance of Precip.
Yesterday
High -- | Low -- °F
Precip. -- in
6:24 AM 7:22 PM
Waning Gibbous, 58% visible
Pressure 30.09 in
Visibility 8.0 miles
Clouds Mostly Cloudy 2200 ft
Mostly Cloudy 2700 ft
Heat Index 83 °F
Dew Point 66 °F
Humidity 59%
Rainfall in
Snow Depth Not available.
UV 5 out of 12
Pollen 8.20 out of 12
Air Quality Not available.
Flu Activity Not available.
METAR KHPN 041556Z 12010G17KT 8SM BKN022 BKN027 26/19 A3010 RMK AO2 SLP187 T02560194
Pressure 30.09 in
Visibility 8.0 miles
Clouds Mostly Cloudy 2200 ft
Mostly Cloudy 2700 ft
Heat Index 83 °F
Dew Point 66 °F
Humidity 59%
Rainfall in
Snow Depth Not available.
UV 5 out of 12
Pollen 8.20 out of 12
Air Quality Not available.
Flu Activity Not available.
METAR KHPN 041556Z 12010G17KT 8SM BKN022 BKN027 26/19 A3010 RMK AO2 SLP187 T02560194

10-Day Weather Forecast

×

Almanac

Astronomy

Sep. 04, 2015 Rise Set
Actual Time
Civil Twilight
Nautical Twilight
Astronomical Twilight
Moon
Length of Visible Light
Length of Day
Tomorrow will be .
, % of the Moon is Illuminated

Today's Extremes

State Highs State Lows

Community

WunderPhotos

Upload Photos

1,852,220 photos uploaded!

WunderBlogs® & News

Nearby

Air Quality

  Air Quality AQ Index Pollutant
Not available.

Snow Depth

Station Depth Elevation

Earthquake Activity

City Distance Mag. Time & Date
Minimum magnitude displayed is 2.5.

Coastal Water Temperatures

Place Temperature

Stations

Nearby Weather Stations

Station Location Temp. Windchill Dew Point Humidity Wind Precip. Elev Updated Type